Time;durP1;ratioP1;P1;durP2;ratioP2;P2;SDS_P1;SDS_P2;PMS_P1;PMS_P2;Temp;Humidity;BMP_temperature;BMP_pressure;BME280_temperature;BME280_humidity;BME280_pressure;Samples;Min_cycle;Max_cycle;Signal;HPM_P1;HPM_P2
2021/11/02 00:02:10;;;;;;;11.98;8.70;;;8.90;99.90;;;;;;5071320;28;20024;-47
2021/11/02 00:04:36;;;;;;;13.38;8.98;;;8.90;99.90;;;;;;5071306;28;20024;-47
2021/11/02 00:07:02;;;;;;;19.23;11.57;;;8.90;99.90;;;;;;5068719;28;20480;-48
2021/11/02 00:09:30;;;;;;;13.75;8.85;;;8.80;99.90;;;;;;5071237;28;20035;-48
2021/11/02 00:11:56;;;;;;;16.23;8.88;;;8.80;99.90;;;;;;5071182;28;20389;-48
2021/11/02 00:14:23;;;;;;;10.05;9.00;;;8.70;99.90;;;;;;5053248;28;20032;-49
2021/11/02 00:16:55;;;;;;;12.32;8.70;;;8.70;99.90;;;;;;5070155;28;20112;-48
2021/11/02 00:19:22;;;;;;;10.20;8.73;;;8.70;99.90;;;;;;5071020;28;20525;-50
2021/11/02 00:21:49;;;;;;;13.30;8.80;;;8.70;99.90;;;;;;5070754;28;20027;-50
2021/11/02 00:24:26;;;;;;;12.45;9.15;;;8.70;99.90;;;;;;5070970;28;20473;-45
2021/11/02 00:26:52;;;;;;;11.35;9.00;;;8.60;99.90;;;;;;5070607;28;20112;-47
2021/11/02 00:29:18;;;;;;;12.32;9.38;;;8.70;99.90;;;;;;5070619;28;20068;-48
2021/11/02 00:31:44;;;;;;;16.27;9.43;;;8.80;99.90;;;;;;5052903;28;20028;-47
2021/11/02 00:34:09;;;;;;;13.63;9.32;;;8.70;99.90;;;;;;5053165;28;20025;-44
2021/11/02 00:36:35;;;;;;;13.85;9.43;;;8.70;99.90;;;;;;5070136;28;20024;-45
2021/11/02 00:39:01;;;;;;;11.48;8.70;;;8.80;99.90;;;;;;5069610;28;20031;-48
2021/11/02 00:41:26;;;;;;;14.27;9.27;;;8.70;99.90;;;;;;5070753;28;20025;-45
2021/11/02 00:43:54;;;;;;;11.90;8.85;;;8.70;99.90;;;;;;5070909;28;20029;-49
2021/11/02 00:46:26;;;;;;;16.27;9.93;;;8.80;99.90;;;;;;5069950;28;20367;-50
2021/11/02 00:48:51;;;;;;;13.52;10.23;;;8.70;99.90;;;;;;5070823;28;20020;-47
2021/11/02 00:51:17;;;;;;;13.18;8.85;;;8.70;99.90;;;;;;5070876;28;20393;-46
2021/11/02 00:53:42;;;;;;;11.65;8.85;;;8.70;99.90;;;;;;5070690;28;20035;-46
2021/11/02 00:56:08;;;;;;;15.73;9.10;;;8.70;99.90;;;;;;5070400;28;20025;-51
2021/11/02 00:58:34;;;;;;;11.00;8.85;;;8.70;99.90;;;;;;5052376;28;20020;-51
2021/11/02 01:01:00;;;;;;;13.43;9.40;;;8.70;99.90;;;;;;5070632;28;20024;-46
2021/11/02 01:03:25;;;;;;;12.20;8.82;;;8.70;99.90;;;;;;5070826;28;20025;-47
2021/11/02 01:05:51;;;;;;;18.60;10.02;;;8.70;99.90;;;;;;5070308;28;20020;-49
2021/11/02 01:08:16;;;;;;;12.30;8.55;;;8.70;99.90;;;;;;5070039;28;20051;-48
2021/11/02 01:10:47;;;;;;;12.93;9.07;;;8.70;99.90;;;;;;5070470;28;20095;-49
2021/11/02 01:13:12;;;;;;;18.73;10.45;;;8.80;99.90;;;;;;5052538;28;20348;-48
2021/11/02 01:15:38;;;;;;;17.15;9.23;;;8.70;99.90;;;;;;5070342;28;20028;-45
2021/11/02 01:18:03;;;;;;;11.82;8.15;;;8.80;99.90;;;;;;5069435;28;20035;-48
2021/11/02 01:20:29;;;;;;;13.20;9.18;;;8.70;99.90;;;;;;5070355;28;20116;-50
2021/11/02 01:22:55;;;;;;;12.80;9.65;;;8.60;99.90;;;;;;5070191;28;20086;-49
2021/11/02 01:25:21;;;;;;;14.68;10.50;;;8.60;99.90;;;;;;5070338;28;20115;-46
2021/11/02 01:27:46;;;;;;;13.07;8.93;;;8.60;99.90;;;;;;5069383;28;20032;-44
2021/11/02 01:30:13;;;;;;;13.52;8.55;;;8.60;99.90;;;;;;5070069;28;20021;-46
2021/11/02 01:32:41;;;;;;;12.45;9.38;;;8.50;99.90;;;;;;5052151;28;20121;-49
2021/11/02 01:35:07;;;;;;;16.17;9.88;;;8.50;99.90;;;;;;5070148;28;20465;-45
2021/11/02 01:37:34;;;;;;;15.52;8.88;;;8.50;99.90;;;;;;5069223;28;20028;-45
2021/11/02 01:40:00;;;;;;;9.40;8.27;;;8.50;99.90;;;;;;5071296;28;20063;-48
2021/11/02 01:42:27;;;;;;;15.43;9.50;;;8.50;99.90;;;;;;5073759;28;20052;-52
2021/11/02 01:44:53;;;;;;;17.90;9.60;;;8.50;99.90;;;;;;5056171;28;20080;-49
2021/11/02 01:47:21;;;;;;;15.55;9.40;;;8.40;99.90;;;;;;5073085;28;20029;-49
2021/11/02 01:49:47;;;;;;;20.17;10.50;;;8.40;99.90;;;;;;5073590;28;20024;-46
2021/11/02 01:52:13;;;;;;;15.63;9.90;;;8.50;99.90;;;;;;5073615;28;20402;-45
2021/11/02 01:54:39;;;;;;;14.57;8.70;;;8.40;99.90;;;;;;5073632;28;20025;-44
2021/11/02 01:57:05;;;;;;;12.82;9.10;;;8.40;99.90;;;;;;5072728;28;20036;-47
2021/11/02 01:59:33;;;;;;;11.13;8.30;;;8.40;99.90;;;;;;5073241;28;20440;-51
2021/11/02 02:02:11;;;;;;;13.05;9.32;;;8.50;99.90;;;;;;5073454;28;20540;-50
2021/11/02 02:05:12;;;;;;;11.35;8.27;;;8.60;99.90;;;;;;5055638;28;20024;-47
2021/11/02 02:07:56;;;;;;;10.32;8.00;;;8.50;99.90;;;;;;5001890;28;20033;-50
2021/11/02 02:10:40;;;;;;;10.05;8.88;;;8.50;99.90;;;;;;5055478;28;20087;-46
2021/11/02 02:13:11;;;;;;;14.45;8.73;;;8.50;99.90;;;;;;5073463;28;20104;-49
2021/11/02 02:16:15;;;;;;;20.27;9.02;;;8.60;99.90;;;;;;5073141;28;20020;-43
2021/11/02 02:19:00;;;;;;;14.00;9.02;;;8.60;99.90;;;;;;5060501;28;20573;-47
2021/11/02 02:21:51;;;;;;;11.82;8.50;;;8.60;99.90;;;;;;5073391;28;20304;-50
2021/11/02 02:24:40;;;;;;;13.10;8.98;;;8.60;99.90;;;;;;5042504;28;20123;-50
2021/11/02 02:27:27;;;;;;;12.20;8.85;;;8.70;99.90;;;;;;5072296;28;20032;-48
2021/11/02 02:29:53;;;;;;;10.32;8.35;;;8.80;99.90;;;;;;5072951;28;20025;-47
2021/11/02 02:32:26;;;;;;;13.40;8.77;;;8.90;99.90;;;;;;5073126;28;20092;-49
2021/11/02 02:34:54;;;;;;;11.73;7.53;;;8.90;99.90;;;;;;5073026;28;20092;-44
2021/11/02 02:37:22;;;;;;;11.75;9.15;;;8.90;99.90;;;;;;5071361;28;20119;-48
2021/11/02 02:39:51;;;;;;;15.63;9.30;;;8.90;99.90;;;;;;5072944;28;20102;-46
2021/11/02 02:42:18;;;;;;;11.32;8.82;;;8.90;99.90;;;;;;5072813;28;20078;-48
2021/11/02 02:44:46;;;;;;;13.73;8.95;;;8.90;99.90;;;;;;5072929;28;20017;-50
2021/11/02 02:47:13;;;;;;;15.60;9.02;;;8.80;99.90;;;;;;5071798;28;20482;-49
2021/11/02 02:49:40;;;;;;;11.43;8.15;;;8.80;99.90;;;;;;5054657;28;20024;-49
2021/11/02 02:52:06;;;;;;;14.05;8.48;;;8.90;99.90;;;;;;5072345;28;20033;-45
2021/11/02 02:54:32;;;;;;;18.75;8.77;;;9.00;99.90;;;;;;5072604;28;20016;-49
2021/11/02 02:56:59;;;;;;;17.58;9.52;;;9.10;99.90;;;;;;5071712;28;20098;-46
2021/11/02 02:59:25;;;;;;;15.18;9.23;;;9.10;99.90;;;;;;5072558;28;20111;-49
2021/11/02 03:01:54;;;;;;;11.15;9.27;;;9.10;99.90;;;;;;5072346;28;20066;-47
2021/11/02 03:04:25;;;;;;;14.10;8.63;;;9.00;99.90;;;;;;5072405;28;20051;-49
2021/11/02 03:06:53;;;;;;;9.52;8.52;;;8.90;99.90;;;;;;5071842;28;20013;-47
2021/11/02 03:09:23;;;;;;;13.38;9.15;;;8.90;99.90;;;;;;5072101;28;20035;-49
2021/11/02 03:11:48;;;;;;;11.50;8.85;;;8.90;99.90;;;;;;5072225;28;20044;-49
2021/11/02 03:15:02;;;;;;;13.02;9.60;;;9.00;99.90;;;;;;5072120;28;20064;-50
2021/11/02 03:17:31;;;;;;;15.23;9.40;;;9.00;99.90;;;;;;5071603;28;20035;-50
2021/11/02 03:43:33;;;;;;;19.75;9.95;;;9.10;99.90;;;;;;5072151;28;20269;-46
2021/11/02 03:56:15;;;;;;;13.15;10.32;;;8.80;99.90;;;;;;5071722;28;20124;-47
2021/11/02 04:33:03;;;;;;;16.50;12.40;;;8.70;99.90;;;;;;5028514;28;20026;-49
2021/11/02 04:44:03;;;;;;;24.17;12.77;;;8.50;99.90;;;;;;5070742;28;20035;-49
2021/11/02 04:47:15;;;;;;;19.85;12.15;;;8.50;99.90;;;;;;5070043;28;20104;-50
2021/11/02 04:58:07;;;;;;;18.40;11.85;;;8.40;99.90;;;;;;5070534;28;20027;-46
2021/11/02 05:07:02;;;;;;;16.27;11.70;;;8.30;99.90;;;;;;5070835;28;20081;-46
2021/11/02 05:51:10;;;;;;;16.80;9.65;;;8.10;99.90;;;;;;5075234;28;20040;-48
2021/11/02 05:58:42;;;;;;;12.60;9.55;;;8.10;99.90;;;;;;5088312;22;20052;-44
2021/11/02 06:06:30;;;;;;;14.25;9.32;;;8.00;99.90;;;;;;5071246;28;20022;-44
2021/11/02 06:28:56;;;;;;;18.92;8.30;;;7.70;99.90;;;;;;5073057;28;20112;-51
2021/11/02 06:34:07;;;;;;;11.02;7.65;;;7.80;99.90;;;;;;5073279;28;20047;-45
2021/11/02 06:37:10;;;;;;;12.20;8.40;;;7.80;99.90;;;;;;5054437;28;20511;-45
2021/11/02 06:42:39;;;;;;;10.70;7.95;;;7.90;99.90;;;;;;5073092;28;20070;-49
2021/11/02 06:51:00;;;;;;;8.77;6.90;;;8.20;99.90;;;;;;5072581;28;20444;-50
2021/11/02 06:59:47;;;;;;;15.85;7.38;;;8.30;99.90;;;;;;5080325;28;20085;-50
2021/11/02 07:20:30;;;;;;;12.65;8.02;;;8.40;99.90;;;;;;5088280;28;20038;-50
2021/11/02 08:47:00;;;;;;;7.78;4.50;;;10.30;99.90;;;;;;5055360;28;20031;-50
2021/11/02 08:49:26;;;;;;;5.15;4.63;;;10.40;99.90;;;;;;5070300;28;20035;-46
2021/11/02 08:51:55;;;;;;;4.63;4.03;;;10.60;99.90;;;;;;5070942;28;20031;-47
2021/11/02 08:54:22;;;;;;;13.60;5.22;;;11.20;99.90;;;;;;5070455;28;20035;-49
2021/11/02 08:56:48;;;;;;;5.43;4.47;;;12.00;99.90;;;;;;5051696;28;20029;-49
2021/11/02 08:59:14;;;;;;;5.72;3.63;;;12.60;99.90;;;;;;5070277;28;20048;-46
2021/11/02 09:01:40;;;;;;;4.65;3.42;;;12.90;99.90;;;;;;5070235;28;20503;-45
2021/11/02 09:04:08;;;;;;;8.40;3.35;;;13.40;99.90;;;;;;5070385;28;20020;-45
2021/11/02 09:06:36;;;;;;;5.07;3.05;;;13.90;99.90;;;;;;5069689;28;20214;-46
2021/11/02 09:09:04;;;;;;;3.42;2.75;;;14.60;99.90;;;;;;5070440;28;20112;-46
2021/11/02 09:11:34;;;;;;;10.13;3.25;;;15.20;99.90;;;;;;5070471;28;20029;-48
2021/11/02 09:13:59;;;;;;;48.92;30.83;;;15.70;99.90;;;;;;5070383;28;20021;-44
2021/11/02 09:16:27;;;;;;;7.90;5.38;;;16.40;99.90;;;;;;5069704;28;20122;-50
2021/11/02 09:18:55;;;;;;;7.63;3.42;;;;;;;;;;5069961;28;20028;-49
2021/11/02 09:21:21;;;;;;;5.38;2.58;;;17.40;98.50;;;;;;5070423;28;20401;-46
2021/11/02 09:23:50;;;;;;;4.55;2.40;;;17.80;98.00;;;;;;5070054;28;20123;-47
2021/11/02 09:26:18;;;;;;;5.80;2.53;;;17.40;97.70;;;;;;5069642;28;20107;-47
2021/11/02 09:28:45;;;;;;;7.32;2.70;;;17.00;98.20;;;;;;5070230;28;20393;-46
2021/11/02 09:31:17;;;;;;;2.47;2.20;;;16.30;99.30;;;;;;5070196;28;20021;-50
2021/11/02 09:33:43;;;;;;;3.95;2.63;;;16.30;99.90;;;;;;5070050;28;20109;-48
2021/11/02 09:36:13;;;;;;;5.60;2.05;;;16.40;99.90;;;;;;5069564;28;20127;-50
2021/11/02 09:38:49;;;;;;;3.47;2.00;;;16.50;99.70;;;;;;5069677;28;20032;-47
2021/11/02 09:41:54;;;;;;;5.03;2.05;;;16.70;99.30;;;;;;5070223;28;20104;-46
2021/11/02 09:44:34;;;;;;;5.18;2.65;;;16.50;98.30;;;;;;5070241;28;20504;-46
2021/11/02 09:47:23;;;;;;;3.53;2.10;;;16.20;98.20;;;;;;5050855;28;20027;-45
2021/11/02 09:50:09;;;;;;;2.38;1.80;;;16.20;98.50;;;;;;5069817;28;20070;-47
2021/11/02 09:52:47;;;;;;;11.82;2.65;;;16.60;98.20;;;;;;5069997;28;20499;-48
2021/11/02 09:55:48;;;;;;;4.03;1.80;;;17.40;97.40;;;;;;5069722;28;20024;-48
2021/11/02 09:58:21;;;;;;;2.95;2.20;;;17.30;96.60;;;;;;5069077;28;20036;-47
2021/11/02 10:01:18;;;;;;;4.60;2.45;;;16.50;97.00;;;;;;5070976;28;20248;-47
2021/11/02 10:04:18;;;;;;;3.85;1.83;;;15.90;98.40;;;;;;5084048;28;20059;-53
2021/11/02 10:07:03;;;;;;;6.05;2.60;;;15.40;99.90;;;;;;5070093;28;20024;-48
2021/11/02 10:09:38;;;;;;;13.93;3.40;;;14.80;99.90;;;;;;5069149;28;20536;-49
2021/11/02 10:12:19;;;;;;;8.17;2.93;;;13.90;99.90;;;;;;5079085;28;20444;-57
2021/11/02 10:15:06;;;;;;;6.47;3.00;;;13.20;99.90;;;;;;5082703;28;20507;-48
2021/11/02 10:18:13;;;;;;;6.40;3.25;;;12.80;99.90;;;;;;5077256;28;20059;-49
2021/11/02 10:21:13;;;;;;;6.97;3.85;;;12.60;99.90;;;;;;5050790;28;20085;-48
2021/11/02 10:24:18;;;;;;;8.55;3.08;;;12.40;99.90;;;;;;5075322;28;20024;-52
2021/11/02 10:27:16;;;;;;;6.80;3.00;;;12.20;99.90;;;;;;5071203;28;20069;-48
2021/11/02 10:30:03;;;;;;;6.00;2.72;;;12.10;99.90;;;;;;5072961;28;20065;-50
2021/11/02 10:32:30;;;;;;;3.80;2.80;;;11.90;99.90;;;;;;5073022;28;20032;-51
2021/11/02 10:34:58;;;;;;;7.22;3.00;;;11.80;99.90;;;;;;5072988;28;20030;-51
2021/11/02 10:37:46;;;;;;;7.47;3.08;;;11.70;99.90;;;;;;5070665;28;20035;-51
2021/11/02 10:40:42;;;;;;;7.70;3.03;;;11.70;99.90;;;;;;5052701;28;20029;-47
2021/11/02 10:43:35;;;;;;;8.77;3.08;;;11.60;99.90;;;;;;5006355;28;20647;-52
2021/11/02 10:46:04;;;;;;;34.55;14.57;;;11.30;99.90;;;;;;5052589;28;20029;-51
2021/11/02 10:48:43;;;;;;;20.92;10.40;;;11.30;99.90;;;;;;5058264;28;20028;-51
2021/11/02 10:51:47;;;;;;;13.13;5.00;;;11.10;99.90;;;;;;5054744;28;20020;-52
2021/11/02 10:54:41;;;;;;;3.53;2.88;;;11.10;99.90;;;;;;5072776;28;20046;-51
2021/11/02 10:57:33;;;;;;;7.70;3.38;;;11.10;99.90;;;;;;5053818;28;20033;-51
2021/11/02 11:00:04;;;;;;;6.65;3.50;;;11.00;99.90;;;;;;5072367;28;20025;-53
2021/11/02 11:02:30;;;;;;;8.52;4.07;;;11.00;99.90;;;;;;5071618;28;20392;-52
2021/11/02 11:04:58;;;;;;;11.35;4.65;;;10.90;99.90;;;;;;5069022;28;20451;-50
2021/11/02 11:07:32;;;;;;;6.90;4.97;;;10.80;99.90;;;;;;5052075;28;20024;-55
2021/11/02 11:09:58;;;;;;;13.75;5.57;;;10.80;99.90;;;;;;5065975;28;20032;-49
2021/11/02 11:12:26;;;;;;;11.95;5.53;;;10.80;99.90;;;;;;5078677;28;20031;-48
2021/11/02 11:14:53;;;;;;;10.60;6.20;;;10.70;99.90;;;;;;5060953;28;20108;-50
2021/11/02 11:17:27;;;;;;;10.48;7.03;;;10.70;99.90;;;;;;5074489;28;20040;-53
2021/11/02 11:19:59;;;;;;;10.07;5.82;;;10.60;99.90;;;;;;5077082;28;20086;-57
2021/11/02 11:22:29;;;;;;;12.30;6.18;;;10.50;99.90;;;;;;5074356;28;20024;-58
2021/11/02 11:25:00;;;;;;;10.00;6.30;;;10.50;99.90;;;;;;5070930;28;20069;-55
2021/11/02 11:27:27;;;;;;;7.72;5.97;;;10.50;99.90;;;;;;5065398;28;20428;-50
2021/11/02 11:30:03;;;;;;;11.32;6.35;;;10.50;99.90;;;;;;5070376;28;20050;-53
2021/11/02 11:32:34;;;;;;;8.50;5.63;;;10.40;99.90;;;;;;5070933;28;20025;-53
2021/11/02 11:35:02;;;;;;;8.48;5.50;;;10.50;99.90;;;;;;5071949;28;20032;-49
2021/11/02 11:37:31;;;;;;;9.65;5.25;;;10.40;99.90;;;;;;5072343;28;20073;-54
2021/11/02 11:40:01;;;;;;;8.88;4.50;;;10.30;99.90;;;;;;5069559;28;20027;-51
2021/11/02 11:42:30;;;;;;;7.30;4.70;;;10.30;99.90;;;;;;5079547;28;20077;-54
2021/11/02 11:45:02;;;;;;;12.10;6.03;;;10.40;99.90;;;;;;5073861;28;20056;-52
2021/11/02 11:47:28;;;;;;;10.27;7.00;;;10.40;99.90;;;;;;5070645;28;20397;-52
2021/11/02 11:49:55;;;;;;;8.10;5.97;;;10.30;99.90;;;;;;5075134;28;20074;-55
2021/11/02 11:52:22;;;;;;;12.93;6.10;;;10.40;99.90;;;;;;5078910;28;20048;-49
2021/11/02 11:54:54;;;;;;;11.32;8.57;;;10.30;99.90;;;;;;5076252;28;20032;-50
2021/11/02 11:57:29;;;;;;;20.15;11.55;;;10.40;99.90;;;;;;5055697;28;20021;-48
2021/11/02 12:00:04;;;;;;;8.98;6.47;;;10.30;99.90;;;;;;5092671;28;20020;-52
2021/11/02 12:02:55;;;;;;;8.63;6.10;;;10.20;99.90;;;;;;5091373;28;20031;-51
2021/11/02 12:05:22;;;;;;;9.85;6.15;;;10.30;99.90;;;;;;5090967;28;20055;-52
2021/11/02 12:07:51;;;;;;;8.70;5.68;;;10.30;99.90;;;;;;5091037;28;20586;-54
2021/11/02 12:10:25;;;;;;;7.18;5.25;;;10.50;99.90;;;;;;5089384;28;20528;-48
2021/11/02 12:12:55;;;;;;;9.75;5.25;;;10.40;99.90;;;;;;5091409;28;20031;-47
2021/11/02 12:15:21;;;;;;;5.50;4.45;;;10.40;99.90;;;;;;5071524;28;20062;-47
2021/11/02 12:17:50;;;;;;;7.50;5.15;;;10.40;99.90;;;;;;5070649;28;20040;-46
2021/11/02 12:20:17;;;;;;;6.63;4.72;;;10.40;99.90;;;;;;5070589;28;20016;-47
2021/11/02 12:22:56;;;;;;;7.25;3.05;;;10.60;99.90;;;;;;5070730;28;20040;-46
2021/11/02 12:25:26;;;;;;;6.03;3.70;;;10.60;99.90;;;;;;5071726;28;20052;-48
2021/11/02 12:27:53;;;;;;;4.20;2.30;;;10.50;99.90;;;;;;5083102;28;20024;-47
2021/11/02 12:30:21;;;;;;;5.50;2.65;;;10.50;99.90;;;;;;5090955;28;20035;-47
2021/11/02 12:32:52;;;;;;;3.53;2.15;;;10.30;99.90;;;;;;5090996;28;20055;-48
2021/11/02 12:35:29;;;;;;;3.42;2.40;;;10.10;99.90;;;;;;5090732;28;20027;-47
2021/11/02 12:38:03;;;;;;;3.58;2.25;;;10.00;99.90;;;;;;5088615;28;20036;-47
2021/11/02 12:40:31;;;;;;;2.33;1.95;;;;;;;;;;5072399;28;20016;-47
2021/11/02 12:42:57;;;;;;;3.05;1.35;;;9.90;99.90;;;;;;5088985;28;20032;-47
2021/11/02 12:45:27;;;;;;;2.25;1.50;;;9.80;99.90;;;;;;5090769;28;20111;-49
2021/11/02 12:47:59;;;;;;;1.30;1.20;;;9.80;99.90;;;;;;5090456;28;20039;-49
2021/11/02 12:50:28;;;;;;;1.30;1.20;;;9.80;99.90;;;;;;5073142;28;20044;-44
2021/11/02 12:52:57;;;;;;;2.17;1.95;;;9.80;99.90;;;;;;5070649;28;20436;-47
2021/11/02 12:55:28;;;;;;;1.58;1.10;;;9.80;99.90;;;;;;5070362;28;20028;-49
2021/11/02 12:58:02;;;;;;;0.88;0.85;;;9.80;99.90;;;;;;5070063;28;20033;-47
2021/11/02 13:00:27;;;;;;;1.15;1.15;;;9.80;99.90;;;;;;5070795;28;20059;-47
2021/11/02 13:02:59;;;;;;;2.55;1.05;;;9.70;99.90;;;;;;5070358;28;20048;-46
2021/11/02 13:05:27;;;;;;;1.23;0.95;;;9.80;99.90;;;;;;5069757;28;20024;-48
2021/11/02 13:08:14;;;;;;;0.98;0.93;;;9.80;99.90;;;;;;5069318;28;20028;-48
2021/11/02 13:10:41;;;;;;;3.00;1.10;;;9.80;99.90;;;;;;5071102;28;20394;-49
2021/11/02 13:13:15;;;;;;;1.42;1.13;;;9.70;99.90;;;;;;5070312;28;20021;-49
2021/11/02 13:15:52;;;;;;;1.88;1.00;;;9.80;99.90;;;;;;5054991;28;20074;-49
2021/11/02 13:18:34;;;;;;;2.63;1.00;;;9.80;99.90;;;;;;5090222;28;20032;-47
2021/11/02 13:21:29;;;;;;;0.95;0.95;;;9.90;99.90;;;;;;5090002;28;20058;-47
2021/11/02 13:24:00;;;;;;;1.52;1.10;;;9.90;99.90;;;;;;5090234;28;20016;-53
2021/11/02 13:26:27;;;;;;;1.58;0.88;;;9.90;99.90;;;;;;5084852;28;20089;-46
2021/11/02 13:29:07;;;;;;;1.48;1.05;;;9.90;99.90;;;;;;5090467;28;20164;-52
2021/11/02 13:31:34;;;;;;;0.70;0.70;;;10.00;99.90;;;;;;5088945;28;20024;-51
2021/11/02 13:34:01;;;;;;;2.05;1.10;;;10.00;99.90;;;;;;5088170;28;20094;-46
2021/11/02 13:36:27;;;;;;;30.55;18.35;;;10.00;99.90;;;;;;5093612;28;20044;-49
2021/11/02 13:38:58;;;;;;;6.43;0.68;;;9.90;99.90;;;;;;5094373;28;20024;-50
2021/11/02 13:41:35;;;;;;;0.50;0.50;;;9.80;99.90;;;;;;5094839;28;20069;-46
2021/11/02 13:44:06;;;;;;;0.90;0.50;;;9.70;99.90;;;;;;5094669;28;20048;-47
2021/11/02 13:46:40;;;;;;;0.40;0.40;;;9.90;99.90;;;;;;5094286;28;20070;-49
2021/11/02 13:49:07;;;;;;;0.50;0.50;;;9.80;99.90;;;;;;5075593;28;20051;-46
2021/11/02 13:51:33;;;;;;;0.55;0.50;;;9.80;99.90;;;;;;5072937;28;20016;-46
2021/11/02 13:54:00;;;;;;;0.50;0.43;;;9.80;99.90;;;;;;5072350;28;20032;-51
2021/11/02 13:56:28;;;;;;;0.40;0.40;;;9.80;99.90;;;;;;5069891;28;20438;-48
2021/11/02 13:58:56;;;;;;;0.50;0.32;;;9.60;99.90;;;;;;5072483;28;20470;-49
2021/11/02 14:01:36;;;;;;;0.38;0.38;;;9.60;99.90;;;;;;5073198;28;20029;-49
2021/11/02 14:04:22;;;;;;;1.73;0.50;;;9.60;99.90;;;;;;5068587;28;20480;-45
2021/11/02 14:06:50;;;;;;;1.50;0.40;;;9.60;99.90;;;;;;5071053;28;20844;-48
2021/11/02 14:09:42;;;;;;;2.17;0.60;;;9.60;99.90;;;;;;5071772;28;20436;-47
2021/11/02 14:12:30;;;;;;;0.60;0.60;;;9.60;99.90;;;;;;5071234;28;20413;-46
2021/11/02 14:15:10;;;;;;;0.38;0.38;;;9.60;99.90;;;;;;5072692;28;20118;-46
2021/11/02 14:17:43;;;;;;;4.30;0.63;;;9.60;99.90;;;;;;5089829;28;20024;-48
2021/11/02 14:20:33;;;;;;;0.95;0.60;;;9.60;99.90;;;;;;5091887;28;20082;-48
2021/11/02 14:22:59;;;;;;;0.50;0.50;;;9.60;99.90;;;;;;5083343;28;20056;-49
2021/11/02 14:25:33;;;;;;;2.92;1.13;;;9.60;99.90;;;;;;5073149;28;20021;-49
2021/11/02 14:28:00;;;;;;;0.63;0.63;;;9.50;99.90;;;;;;5081138;28;20107;-47
2021/11/02 14:30:31;;;;;;;0.60;0.60;;;9.50;99.90;;;;;;5093168;28;20122;-46
2021/11/02 14:33:00;;;;;;;0.70;0.50;;;9.50;99.90;;;;;;5093085;28;20039;-49
2021/11/02 14:35:45;;;;;;;1.38;0.60;;;9.40;99.90;;;;;;5092931;28;20106;-48
2021/11/02 14:38:22;;;;;;;0.52;0.52;;;9.40;99.90;;;;;;5091936;28;20056;-48
2021/11/02 14:40:53;;;;;;;0.50;0.50;;;9.40;99.90;;;;;;5092826;28;20074;-48
2021/11/02 14:43:33;;;;;;;5.97;0.55;;;9.40;99.90;;;;;;5092923;28;20035;-51
2021/11/02 14:46:04;;;;;;;1.20;0.65;;;9.50;99.90;;;;;;5090933;28;20349;-47
2021/11/02 14:48:47;;;;;;;0.70;0.70;;;9.50;99.90;;;;;;5086684;28;20037;-52
2021/11/02 14:51:13;;;;;;;0.47;0.47;;;9.50;99.90;;;;;;5052964;28;20029;-53
2021/11/02 14:53:42;;;;;;;0.60;0.60;;;9.50;99.90;;;;;;5076977;28;20539;-47
2021/11/02 14:56:09;;;;;;;5.07;3.55;;;9.50;99.90;;;;;;5054802;28;20397;-48
2021/11/02 14:58:41;;;;;;;56.42;30.10;;;9.50;99.90;;;;;;5056597;28;20047;-47
2021/11/02 15:01:12;;;;;;;2.13;1.77;;;9.60;99.90;;;;;;5072522;28;20122;-49
2021/11/02 15:04:06;;;;;;;0.77;0.77;;;9.60;99.90;;;;;;5072106;28;20385;-47
2021/11/02 15:06:40;;;;;;;1.35;0.90;;;9.70;99.90;;;;;;5071872;28;20013;-50
2021/11/02 15:09:14;;;;;;;0.93;0.93;;;9.70;99.90;;;;;;5072059;28;20064;-47
2021/11/02 15:11:41;;;;;;;3.40;0.90;;;9.70;99.90;;;;;;5072054;28;20493;-46
2021/11/02 15:14:12;;;;;;;1.13;0.80;;;9.70;99.90;;;;;;5074757;28;20658;-49
2021/11/02 15:16:43;;;;;;;0.85;0.85;;;9.60;99.90;;;;;;5082905;28;20033;-48
2021/11/02 15:19:10;;;;;;;0.82;0.70;;;9.60;99.90;;;;;;5071903;28;20021;-52
2021/11/02 15:21:38;;;;;;;0.80;0.80;;;9.60;99.90;;;;;;5072141;28;20029;-50
2021/11/02 15:24:27;;;;;;;0.90;0.90;;;9.60;99.90;;;;;;5071747;28;20554;-49
2021/11/02 15:27:01;;;;;;;0.98;0.95;;;9.50;99.90;;;;;;5071598;28;20032;-51
2021/11/02 15:29:30;;;;;;;0.75;0.75;;;9.50;99.90;;;;;;5071983;28;20424;-48
2021/11/02 15:32:02;;;;;;;1.08;0.70;;;9.50;99.90;;;;;;5070976;28;20056;-50
2021/11/02 15:34:40;;;;;;;0.60;0.60;;;9.50;99.90;;;;;;5083531;28;20027;-47
2021/11/02 15:37:08;;;;;;;3.03;0.63;;;9.40;99.90;;;;;;5091807;28;20073;-46
2021/11/02 15:39:34;;;;;;;0.55;0.55;;;9.40;99.90;;;;;;5081177;28;20020;-46
2021/11/02 15:42:02;;;;;;;0.60;0.60;;;9.40;99.90;;;;;;5071744;28;20436;-46
2021/11/02 15:44:29;;;;;;;0.75;0.70;;;9.40;99.90;;;;;;5071621;28;20459;-48
2021/11/02 15:46:54;;;;;;;0.80;0.80;;;9.40;99.90;;;;;;5081911;28;20608;-48
2021/11/02 15:49:22;;;;;;;0.70;0.70;;;9.30;99.90;;;;;;5091613;28;20081;-48
2021/11/02 15:51:57;;;;;;;1.17;1.08;;;9.30;99.90;;;;;;5091576;28;20038;-48
2021/11/02 15:54:26;;;;;;;0.80;0.80;;;9.30;99.90;;;;;;5091764;28;20032;-47
2021/11/02 15:56:53;;;;;;;0.88;0.88;;;9.30;99.90;;;;;;5091679;28;20115;-47
2021/11/02 15:59:23;;;;;;;1.02;1.00;;;9.30;99.90;;;;;;5090620;28;20062;-47
2021/11/02 16:01:50;;;;;;;1.13;1.00;;;9.30;99.90;;;;;;5091053;28;20078;-45
2021/11/02 16:04:20;;;;;;;1.98;1.42;;;9.40;99.90;;;;;;5091509;28;20051;-45
2021/11/02 16:07:05;;;;;;;1.02;0.93;;;9.50;99.90;;;;;;5091203;28;20070;-45
2021/11/02 16:09:47;;;;;;;1.00;1.00;;;9.50;99.90;;;;;;5077222;28;20043;-46
2021/11/02 16:12:30;;;;;;;1.98;1.30;;;9.40;99.90;;;;;;5053587;28;20032;-46
2021/11/02 16:15:17;;;;;;;1.65;1.55;;;9.40;99.90;;;;;;5070346;28;20028;-48
2021/11/02 16:17:47;;;;;;;3.88;1.80;;;9.40;99.90;;;;;;5070217;28;20028;-49
2021/11/02 16:20:21;;;;;;;5.10;1.73;;;9.40;99.90;;;;;;5071948;28;20075;-46
2021/11/02 16:22:49;;;;;;;1.70;1.48;;;9.30;99.90;;;;;;5070943;28;20078;-46
2021/11/02 16:25:14;;;;;;;5.22;2.47;;;9.30;99.90;;;;;;5070982;28;20056;-48
2021/11/02 16:27:51;;;;;;;2.33;2.10;;;9.30;99.90;;;;;;5070551;28;20056;-51
2021/11/02 16:30:20;;;;;;;2.35;2.15;;;9.30;99.90;;;;;;5070876;28;20035;-47
2021/11/02 16:32:48;;;;;;;2.55;2.20;;;9.30;99.90;;;;;;5070784;28;20035;-51
2021/11/02 16:35:38;;;;;;;2.05;1.95;;;9.30;99.90;;;;;;5071700;28;20031;-47
2021/11/02 16:38:27;;;;;;;3.42;2.40;;;9.30;99.90;;;;;;5050354;28;20509;-48
2021/11/02 16:41:17;;;;;;;4.28;2.20;;;9.30;99.90;;;;;;5050891;28;20099;-51
2021/11/02 16:44:01;;;;;;;4.35;2.30;;;9.30;99.90;;;;;;5050720;28;20036;-47
2021/11/02 16:46:29;;;;;;;2.78;2.10;;;9.30;99.90;;;;;;5050028;28;20025;-48
2021/11/02 16:49:00;;;;;;;9.70;6.55;;;9.20;99.90;;;;;;5050666;28;20096;-47
2021/11/02 16:51:51;;;;;;;2.63;2.42;;;9.20;99.90;;;;;;5063784;28;20039;-46
2021/11/02 16:54:25;;;;;;;2.15;2.05;;;9.20;99.90;;;;;;5070532;28;20108;-47
2021/11/02 16:57:06;;;;;;;2.63;2.20;;;9.20;99.90;;;;;;5052558;28;20031;-49
2021/11/02 16:59:37;;;;;;;2.47;2.28;;;9.10;99.90;;;;;;5070418;28;20445;-46
2021/11/02 17:02:37;;;;;;;2.60;2.40;;;9.20;99.90;;;;;;5070598;28;20017;-45
2021/11/02 17:05:22;;;;;;;3.47;2.60;;;9.20;99.90;;;;;;5071627;28;20021;-46
2021/11/02 17:07:53;;;;;;;4.97;4.20;;;9.20;99.90;;;;;;5075205;28;20028;-49
2021/11/02 17:10:22;;;;;;;3.65;3.20;;;9.10;99.90;;;;;;5090448;28;20384;-45
2021/11/02 17:12:53;;;;;;;3.80;3.42;;;9.20;99.90;;;;;;5090811;28;20017;-45
2021/11/02 17:15:24;;;;;;;4.10;3.70;;;9.10;99.90;;;;;;5090664;28;20081;-46
2021/11/02 17:17:51;;;;;;;3.78;3.35;;;9.10;99.90;;;;;;5090152;28;20450;-45
2021/11/02 17:20:17;;;;;;;4.70;3.50;;;9.10;99.90;;;;;;5083124;28;20081;-49
2021/11/02 17:22:45;;;;;;;5.65;3.53;;;9.10;99.90;;;;;;5078223;28;20467;-50
2021/11/02 17:25:11;;;;;;;3.47;3.20;;;9.20;99.90;;;;;;5053069;28;20025;-47
2021/11/02 17:27:37;;;;;;;3.80;3.50;;;9.20;99.90;;;;;;5053545;28;20053;-47
2021/11/02 17:30:04;;;;;;;3.45;3.15;;;9.20;99.90;;;;;;5069351;28;20506;-46
2021/11/02 17:32:30;;;;;;;5.15;3.80;;;9.30;99.90;;;;;;5070006;28;20043;-49
2021/11/02 17:34:58;;;;;;;3.80;3.40;;;9.30;99.90;;;;;;5081034;28;20481;-49
2021/11/02 17:37:25;;;;;;;4.38;3.97;;;9.30;99.90;;;;;;5069065;28;20476;-45
2021/11/02 17:39:50;;;;;;;4.38;3.97;;;9.20;99.90;;;;;;5070081;28;20024;-48
2021/11/02 17:42:17;;;;;;;4.22;3.72;;;9.30;99.90;;;;;;5070070;28;20029;-46
2021/11/02 17:44:43;;;;;;;3.95;3.65;;;9.30;99.90;;;;;;5069957;28;20025;-46
2021/11/02 17:47:12;;;;;;;3.05;2.85;;;9.30;99.90;;;;;;5069603;28;20028;-46
2021/11/02 17:49:38;;;;;;;3.90;2.80;;;9.30;99.90;;;;;;5070007;28;20016;-47
2021/11/02 17:52:04;;;;;;;2.60;2.40;;;9.30;99.90;;;;;;5070013;28;20107;-51
2021/11/02 17:54:30;;;;;;;3.35;2.42;;;9.20;99.90;;;;;;5069774;28;20090;-52
2021/11/02 17:56:56;;;;;;;2.42;2.22;;;9.20;99.90;;;;;;5050772;28;20455;-52
2021/11/02 17:59:22;;;;;;;7.95;5.10;;;9.20;99.90;;;;;;5070789;28;20061;-52
2021/11/02 18:01:49;;;;;;;4.55;3.38;;;9.30;99.90;;;;;;5069911;28;20035;-52
2021/11/02 18:04:15;;;;;;;5.35;2.45;;;9.30;99.90;;;;;;5069314;28;20078;-52